Time;durP1;ratioP1;P1;durP2;ratioP2;P2;SDS_P1;SDS_P2;PMS_P1;PMS_P2;Temp;Humidity;BMP_temperature;BMP_pressure;BME280_temperature;BME280_humidity;BME280_pressure;Samples;Min_cycle;Max_cycle;Signal;HPM_P1;HPM_P2
2022/03/08 00:00:22;;;;;;;6.55;4.45;;;;;8.70;102243.00;;;;5046431;28;20227;-79
2022/03/08 00:02:49;;;;;;;5.72;3.65;;;;;8.80;102242.00;;;;5039991;28;20193;-80
2022/03/08 00:05:18;;;;;;;7.40;4.07;;;;;8.70;102241.00;;;;5047671;28;20204;-79
2022/03/08 00:07:47;;;;;;;6.72;3.90;;;;;8.80;102242.00;;;;5048838;28;20680;-79
2022/03/08 00:10:16;;;;;;;5.57;4.07;;;;;8.70;102245.00;;;;5043180;28;20196;-79
2022/03/08 00:12:43;;;;;;;5.25;4.00;;;;;8.70;102239.00;;;;5047241;28;20692;-79
2022/03/08 00:15:12;;;;;;;6.20;4.07;;;;;8.70;102231.00;;;;5048801;28;20258;-79
2022/03/08 00:17:40;;;;;;;4.80;3.88;;;;;8.70;102236.00;;;;5041877;28;20201;-79
2022/03/08 00:20:09;;;;;;;7.10;4.13;;;;;8.70;102235.00;;;;5040073;28;20259;-79
2022/03/08 00:22:39;;;;;;;4.65;3.83;;;;;8.70;102223.00;;;;5047483;28;20290;-79
2022/03/08 00:25:11;;;;;;;4.97;3.75;;;;;8.70;102220.00;;;;5036696;28;20193;-80
2022/03/08 00:27:38;;;;;;;4.75;3.53;;;;;8.70;102224.00;;;;5048053;28;20195;-79
2022/03/08 00:30:07;;;;;;;6.28;3.95;;;;;8.70;102226.00;;;;5047603;28;20199;-80
2022/03/08 00:32:34;;;;;;;5.43;3.45;;;;;8.70;102231.00;;;;5037568;28;20204;-79
2022/03/08 00:35:02;;;;;;;4.95;3.70;;;;;8.70;102227.00;;;;5038309;28;20195;-79
2022/03/08 00:37:29;;;;;;;4.15;3.22;;;;;8.70;102217.00;;;;5048079;28;20254;-80
2022/03/08 00:39:58;;;;;;;4.15;3.15;;;;;8.60;102225.00;;;;5048923;28;20219;-80
2022/03/08 00:42:25;;;;;;;5.47;3.40;;;;;8.60;102220.00;;;;5036955;28;20583;-79
2022/03/08 00:44:54;;;;;;;3.80;2.80;;;;;8.70;102226.00;;;;5039323;28;20211;-80
2022/03/08 00:47:21;;;;;;;5.10;3.40;;;;;8.60;102226.00;;;;5043941;28;20542;-80
2022/03/08 00:49:48;;;;;;;3.83;2.97;;;;;8.70;102218.00;;;;5046688;28;20192;-79
2022/03/08 00:52:15;;;;;;;3.60;2.80;;;;;8.70;102216.00;;;;5034322;28;20201;-79
2022/03/08 00:54:43;;;;;;;3.97;2.78;;;;;8.70;102217.00;;;;5037851;28;20220;-79
2022/03/08 00:57:11;;;;;;;3.75;2.85;;;;;8.60;102219.00;;;;5032502;28;20204;-80
2022/03/08 00:59:39;;;;;;;4.90;3.40;;;;;8.70;102214.00;;;;5044904;28;20223;-79
2022/03/08 01:02:06;;;;;;;4.82;3.47;;;;;8.70;102206.00;;;;5043118;28;20587;-80
2022/03/08 01:04:33;;;;;;;5.18;3.58;;;;;8.70;102217.00;;;;5044697;28;20206;-79
2022/03/08 01:07:00;;;;;;;3.88;2.90;;;;;8.70;102205.00;;;;5032667;28;22140;-79
2022/03/08 01:09:28;;;;;;;4.60;3.25;;;;;8.70;102209.00;;;;5033431;28;20200;-80
2022/03/08 01:11:56;;;;;;;4.38;3.30;;;;;8.70;102205.00;;;;5034219;28;20254;-80
2022/03/08 01:14:25;;;;;;;4.55;3.30;;;;;8.70;102199.00;;;;5047522;28;20196;-79
2022/03/08 01:16:52;;;;;;;4.07;3.17;;;;;8.70;102195.00;;;;5042843;28;21089;-79
2022/03/08 01:19:20;;;;;;;4.25;3.50;;;;;8.70;102201.00;;;;5036000;28;20224;-80
2022/03/08 01:21:47;;;;;;;4.50;3.15;;;;;8.80;102195.00;;;;5043258;28;20222;-80
2022/03/08 01:24:14;;;;;;;4.45;3.05;;;;;8.80;102193.00;;;;5042994;28;20477;-80
2022/03/08 01:26:41;;;;;;;3.92;2.92;;;;;8.80;102195.00;;;;5031588;28;20254;-80
2022/03/08 01:29:09;;;;;;;4.25;3.85;;;;;8.80;102195.00;;;;5045846;28;20211;-79
2022/03/08 01:31:37;;;;;;;4.97;3.17;;;;;8.70;102196.00;;;;5041868;28;20195;-79
2022/03/08 01:34:05;;;;;;;4.95;3.33;;;;;8.80;102193.00;;;;5047793;28;20203;-79
2022/03/08 01:36:32;;;;;;;3.92;3.03;;;;;8.80;102189.00;;;;5047797;28;20191;-80
2022/03/08 01:38:59;;;;;;;4.38;3.33;;;;;8.80;102189.00;;;;5041980;28;21005;-79
2022/03/08 01:41:26;;;;;;;4.60;3.13;;;;;8.80;102182.00;;;;5047328;28;20215;-79
2022/03/08 01:43:54;;;;;;;5.30;3.85;;;;;8.80;102190.00;;;;5047489;28;20196;-79
2022/03/08 01:46:21;;;;;;;4.93;3.25;;;;;8.80;102182.00;;;;5042704;28;20199;-79
2022/03/08 01:48:50;;;;;;;4.82;3.78;;;;;8.80;102177.00;;;;5048780;28;20192;-79
2022/03/08 01:51:17;;;;;;;5.07;3.63;;;;;8.80;102172.00;;;;5028074;28;20200;-79
2022/03/08 01:53:46;;;;;;;6.72;4.00;;;;;8.80;102172.00;;;;5028957;28;20258;-80
2022/03/08 01:56:14;;;;;;;4.75;3.92;;;;;8.80;102174.00;;;;5035907;28;20211;-80
2022/03/08 01:58:42;;;;;;;3.78;3.33;;;;;8.80;102167.00;;;;5043666;28;20195;-80
2022/03/08 02:01:09;;;;;;;4.15;3.35;;;;;8.80;102161.00;;;;5039725;28;20226;-80
2022/03/08 02:03:37;;;;;;;4.72;3.45;;;;;8.80;102159.00;;;;5047407;28;20215;-80
2022/03/08 02:06:05;;;;;;;5.32;4.07;;;;;8.80;102150.00;;;;5036974;28;20205;-77
2022/03/08 02:08:33;;;;;;;5.93;3.50;;;;;8.80;102149.00;;;;5028493;28;20196;-78
2022/03/08 02:11:00;;;;;;;5.57;3.50;;;;;8.80;102155.00;;;;5045005;28;20199;-77
2022/03/08 02:13:28;;;;;;;4.13;3.25;;;;;8.80;102144.00;;;;5046979;28;20211;-77
2022/03/08 02:15:55;;;;;;;4.80;3.67;;;;;8.80;102141.00;;;;5041797;28;20204;-78
2022/03/08 02:18:23;;;;;;;4.18;3.30;;;;;8.80;102140.00;;;;5035644;28;20202;-79
2022/03/08 02:20:50;;;;;;;5.38;3.47;;;;;8.80;102134.00;;;;5036215;28;20239;-78
2022/03/08 02:23:19;;;;;;;8.82;3.50;;;;;8.70;102137.00;;;;5042558;28;20246;-79
2022/03/08 02:25:46;;;;;;;5.32;3.80;;;;;8.70;102127.00;;;;5040683;28;20206;-78
2022/03/08 02:28:14;;;;;;;3.65;3.22;;;;;8.70;102127.00;;;;5045037;28;20595;-78
2022/03/08 02:30:41;;;;;;;4.40;3.38;;;;;8.70;102113.00;;;;5042712;28;20195;-78
2022/03/08 02:33:10;;;;;;;4.80;3.42;;;;;8.70;102122.00;;;;5049444;28;20213;-78
2022/03/08 02:35:37;;;;;;;3.28;2.60;;;;;8.70;102111.00;;;;5039190;28;20223;-78
2022/03/08 02:38:06;;;;;;;4.70;3.47;;;;;8.70;102100.00;;;;5044494;28;20184;-78
2022/03/08 02:40:37;;;;;;;4.57;3.53;;;;;8.60;102104.00;;;;5039797;28;20232;-78
2022/03/08 02:43:06;;;;;;;9.13;3.60;;;;;8.70;102104.00;;;;5042381;28;20206;-79
2022/03/08 02:45:33;;;;;;;4.45;3.15;;;;;8.70;102111.00;;;;5045190;28;20195;-78
2022/03/08 02:48:01;;;;;;;5.05;3.67;;;;;8.60;102100.00;;;;5043115;28;20204;-78
2022/03/08 02:50:28;;;;;;;5.78;2.72;;;;;8.60;102108.00;;;;5045798;28;20260;-78
2022/03/08 02:52:58;;;;;;;4.43;3.47;;;;;8.60;102102.00;;;;5044126;28;20199;-79
2022/03/08 02:55:27;;;;;;;3.72;2.72;;;;;8.60;102101.00;;;;5048503;28;20701;-79
2022/03/08 02:57:57;;;;;;;5.43;2.92;;;;;8.50;102105.00;;;;5046493;28;20192;-78
2022/03/08 03:00:25;;;;;;;4.78;3.20;;;;;8.60;102103.00;;;;5044801;28;20248;-78
2022/03/08 03:02:53;;;;;;;4.90;3.42;;;;;8.60;102101.00;;;;5039148;28;20196;-79
2022/03/08 03:05:21;;;;;;;4.45;3.17;;;;;8.50;102098.00;;;;5044611;28;20247;-78
2022/03/08 03:07:48;;;;;;;3.70;2.92;;;;;8.50;102088.00;;;;5048298;28;20203;-78
2022/03/08 03:10:18;;;;;;;4.40;3.50;;;;;8.50;102100.00;;;;5036586;28;21049;-78
2022/03/08 03:12:45;;;;;;;3.92;2.90;;;;;8.50;102100.00;;;;5038410;28;20593;-79
2022/03/08 03:15:15;;;;;;;4.13;3.33;;;;;8.50;102083.00;;;;5048402;28;20203;-78
2022/03/08 03:17:43;;;;;;;4.78;3.05;;;;;8.50;102084.00;;;;5030457;28;20203;-79
2022/03/08 03:20:12;;;;;;;3.92;3.15;;;;;8.50;102081.00;;;;5029535;28;20227;-78
2022/03/08 03:22:40;;;;;;;4.10;3.10;;;;;8.50;102082.00;;;;5045189;28;20578;-78
2022/03/08 03:25:09;;;;;;;4.55;3.38;;;;;8.50;102082.00;;;;5043016;28;20203;-78
2022/03/08 03:27:37;;;;;;;4.18;2.85;;;;;8.40;102076.00;;;;5046804;28;20242;-78
2022/03/08 03:30:05;;;;;;;5.63;2.90;;;;;8.40;102081.00;;;;5030293;28;20205;-78
2022/03/08 03:32:34;;;;;;;14.18;3.40;;;;;8.40;102082.00;;;;5031619;28;20207;-78
2022/03/08 03:35:02;;;;;;;4.10;3.00;;;;;8.40;102085.00;;;;5041817;28;20187;-78
2022/03/08 03:37:29;;;;;;;3.83;2.88;;;;;8.40;102079.00;;;;5048316;28;20200;-78
2022/03/08 03:39:56;;;;;;;5.20;2.90;;;;;8.40;102079.00;;;;5041974;28;20270;-78
2022/03/08 03:42:24;;;;;;;4.40;2.80;;;;;8.40;102075.00;;;;5039302;28;20230;-79
2022/03/08 03:44:51;;;;;;;4.63;2.85;;;;;8.40;102076.00;;;;5051094;28;20207;-78
2022/03/08 03:47:18;;;;;;;4.20;2.90;;;;;8.30;102072.00;;;;5048242;28;21116;-78
2022/03/08 03:49:47;;;;;;;3.45;2.63;;;;;8.30;102075.00;;;;5034098;28;20188;-79
2022/03/08 03:52:14;;;;;;;3.92;2.90;;;;;8.30;102078.00;;;;5034678;28;20203;-78
2022/03/08 03:54:42;;;;;;;3.08;2.60;;;;;8.30;102086.00;;;;5032618;28;20239;-78
2022/03/08 03:57:11;;;;;;;5.28;3.22;;;;;8.30;102085.00;;;;5040693;28;20196;-78
2022/03/08 03:59:39;;;;;;;3.60;2.83;;;;;8.30;102080.00;;;;5033612;28;20741;-78
2022/03/08 04:02:07;;;;;;;3.13;2.72;;;;;8.30;102082.00;;;;5035602;28;20784;-79
2022/03/08 04:04:34;;;;;;;3.30;2.78;;;;;8.30;102078.00;;;;5040975;28;20245;-78
2022/03/08 04:07:03;;;;;;;3.88;3.13;;;;;8.20;102073.00;;;;5048568;28;20199;-78
2022/03/08 04:09:30;;;;;;;5.15;3.30;;;;;8.20;102072.00;;;;5035268;28;20195;-78
2022/03/08 04:11:58;;;;;;;4.63;3.15;;;;;8.20;102072.00;;;;5047689;28;20192;-79
2022/03/08 04:14:26;;;;;;;5.88;3.33;;;;;8.20;102072.00;;;;5046355;28;20211;-79
2022/03/08 04:16:53;;;;;;;5.18;3.25;;;;;8.20;102071.00;;;;5045090;28;20279;-78
2022/03/08 04:19:20;;;;;;;3.85;3.03;;;;;8.20;102064.00;;;;5045730;28;20327;-78
2022/03/08 04:21:48;;;;;;;3.92;2.92;;;;;8.20;102061.00;;;;5041480;28;20223;-78
2022/03/08 04:24:16;;;;;;;4.55;2.83;;;;;8.20;102062.00;;;;5045515;28;20184;-78
2022/03/08 04:26:43;;;;;;;3.00;2.65;;;;;8.20;102065.00;;;;5049145;28;20200;-79
2022/03/08 04:29:11;;;;;;;5.38;3.20;;;;;8.20;102062.00;;;;5033417;28;20215;-79
2022/03/08 04:31:38;;;;;;;3.58;3.05;;;;;8.10;102056.00;;;;5045934;28;20203;-78
2022/03/08 04:34:05;;;;;;;4.97;3.42;;;;;8.10;102059.00;;;;5037601;28;20230;-79
2022/03/08 04:36:33;;;;;;;3.78;2.90;;;;;8.10;102048.00;;;;5048367;28;20195;-79
2022/03/08 04:39:00;;;;;;;3.88;3.33;;;;;8.10;102052.00;;;;5038541;28;20213;-79
2022/03/08 04:41:28;;;;;;;3.80;3.00;;;;;8.10;102053.00;;;;5031388;28;20222;-79
2022/03/08 04:43:56;;;;;;;3.65;2.75;;;;;8.10;102056.00;;;;5046336;28;20202;-78
2022/03/08 04:46:23;;;;;;;3.50;2.72;;;;;8.10;102058.00;;;;5046656;28;20198;-78
2022/03/08 04:48:50;;;;;;;3.85;2.75;;;;;8.10;102053.00;;;;5046426;28;20338;-78
2022/03/08 04:51:17;;;;;;;5.35;2.92;;;;;8.10;102047.00;;;;5048269;28;20669;-79
2022/03/08 04:53:45;;;;;;;3.47;2.90;;;;;8.10;102055.00;;;;5045342;28;20250;-78
2022/03/08 04:56:12;;;;;;;3.80;2.50;;;;;8.10;102055.00;;;;5034246;28;20207;-78
2022/03/08 04:58:40;;;;;;;4.35;3.08;;;;;8.10;102057.00;;;;5048186;28;20243;-78
2022/03/08 05:01:08;;;;;;;4.15;3.17;;;;;8.10;102061.00;;;;5035083;28;20195;-78
2022/03/08 05:03:35;;;;;;;4.72;3.47;;;;;8.10;102058.00;;;;5045839;28;20232;-78
2022/03/08 05:06:02;;;;;;;3.63;2.80;;;;;8.10;102065.00;;;;5048127;28;20242;-78
2022/03/08 05:08:30;;;;;;;4.35;3.35;;;;;8.10;102059.00;;;;5031464;28;20192;-78
2022/03/08 05:10:57;;;;;;;3.35;2.80;;;;;8.00;102064.00;;;;5041238;28;20673;-78
2022/03/08 05:13:24;;;;;;;3.90;2.90;;;;;8.00;102055.00;;;;5035207;28;20191;-79
2022/03/08 05:15:53;;;;;;;4.15;2.92;;;;;8.00;102059.00;;;;5040884;28;20602;-79
2022/03/08 05:18:20;;;;;;;4.43;3.20;;;;;8.10;102048.00;;;;5034645;28;20204;-78
2022/03/08 05:20:47;;;;;;;3.90;2.70;;;;;8.10;102053.00;;;;5041982;28;20735;-79
2022/03/08 05:23:15;;;;;;;4.05;3.10;;;;;8.00;102050.00;;;;5038559;28;20286;-79
2022/03/08 05:25:43;;;;;;;4.75;2.80;;;;;8.00;102044.00;;;;5035961;28;20207;-79
2022/03/08 05:28:11;;;;;;;3.95;2.90;;;;;8.00;102037.00;;;;5047259;28;21052;-79
2022/03/08 05:30:38;;;;;;;4.18;2.95;;;;;8.00;102033.00;;;;5045550;28;20206;-80
2022/03/08 05:33:06;;;;;;;4.05;3.10;;;;;8.00;102030.00;;;;5036312;28;20191;-80
2022/03/08 05:35:34;;;;;;;5.93;3.42;;;;;8.00;102037.00;;;;5040216;28;20188;-80
2022/03/08 05:38:01;;;;;;;5.57;2.80;;;;;8.00;102036.00;;;;5045329;28;20206;-80
2022/03/08 05:40:29;;;;;;;4.22;2.83;;;;;8.00;102024.00;;;;5046635;28;20286;-80
2022/03/08 05:42:58;;;;;;;4.15;3.00;;;;;8.00;102027.00;;;;5036190;28;20219;-80
2022/03/08 05:45:26;;;;;;;4.75;2.97;;;;;8.00;102024.00;;;;5043409;28;20684;-79
2022/03/08 05:47:56;;;;;;;3.63;2.50;;;;;7.90;102018.00;;;;5046895;28;20721;-80
2022/03/08 05:50:25;;;;;;;3.63;2.85;;;;;7.90;102020.00;;;;5045409;28;20206;-78
2022/03/08 05:52:55;;;;;;;4.68;3.35;;;;;7.90;102029.00;;;;5046520;28;20603;-79
2022/03/08 05:55:22;;;;;;;4.57;3.42;;;;;7.90;102035.00;;;;5048007;28;20215;-80
2022/03/08 05:57:49;;;;;;;4.03;2.78;;;;;7.90;102033.00;;;;5048326;28;20195;-80
2022/03/08 06:00:17;;;;;;;4.55;3.10;;;;;7.90;102041.00;;;;5046180;28;20198;-81
2022/03/08 06:02:44;;;;;;;3.92;3.00;;;;;7.90;102040.00;;;;5033404;28;20236;-80
2022/03/08 06:05:12;;;;;;;4.20;2.88;;;;;7.90;102040.00;;;;5047605;28;20559;-80
2022/03/08 06:07:40;;;;;;;3.83;3.00;;;;;7.90;102042.00;;;;5047588;28;20207;-78
2022/03/08 06:10:09;;;;;;;3.95;3.10;;;;;7.90;102051.00;;;;5050131;28;20203;-78
2022/03/08 06:12:37;;;;;;;5.30;3.35;;;;;7.90;102044.00;;;;5049509;28;20238;-78
2022/03/08 06:15:05;;;;;;;3.47;3.00;;;;;7.90;102036.00;;;;5048580;28;20568;-78
2022/03/08 06:17:33;;;;;;;3.25;2.72;;;;;7.90;102035.00;;;;5048124;28;20270;-78
2022/03/08 06:20:00;;;;;;;4.03;3.00;;;;;7.90;102032.00;;;;5051159;28;20250;-78
2022/03/08 06:22:28;;;;;;;4.40;3.47;;;;;7.90;102036.00;;;;5047363;28;20597;-78
2022/03/08 06:24:56;;;;;;;3.58;3.00;;;;;7.80;102042.00;;;;5044680;28;20199;-78
2022/03/08 06:27:24;;;;;;;4.43;2.83;;;;;7.90;102044.00;;;;5050874;28;20199;-78
2022/03/08 06:29:52;;;;;;;4.55;3.60;;;;;7.90;102043.00;;;;5049479;28;20222;-76
2022/03/08 06:32:20;;;;;;;3.97;3.10;;;;;7.90;102046.00;;;;5046420;28;20282;-79
2022/03/08 06:34:50;;;;;;;3.50;3.08;;;;;7.90;102048.00;;;;5050004;28;20731;-79
2022/03/08 06:37:18;;;;;;;4.55;3.40;;;;;7.90;102045.00;;;;5052395;28;20198;-78
2022/03/08 06:39:45;;;;;;;4.28;3.40;;;;;7.90;102030.00;;;;5038475;28;20216;-78
2022/03/08 06:42:14;;;;;;;4.25;3.35;;;;;7.90;102042.00;;;;5033359;28;20224;-78
2022/03/08 06:44:41;;;;;;;4.63;3.72;;;;;8.00;102031.00;;;;5032604;28;20575;-79
2022/03/08 06:47:10;;;;;;;4.47;3.30;;;;;8.00;102038.00;;;;5035684;28;20211;-78
2022/03/08 06:49:40;;;;;;;4.13;3.38;;;;;8.00;102036.00;;;;5052751;28;20741;-78
2022/03/08 06:52:09;;;;;;;4.18;3.20;;;;;8.00;102039.00;;;;5052238;28;20207;-78
2022/03/08 06:54:36;;;;;;;3.90;3.03;;;;;8.10;102038.00;;;;5043867;28;20200;-78
2022/03/08 06:57:04;;;;;;;4.07;3.08;;;;;8.10;102044.00;;;;5030925;28;20242;-78
2022/03/08 06:59:33;;;;;;;4.10;3.55;;;;;8.10;102041.00;;;;5032310;28;20208;-78
2022/03/08 07:02:01;;;;;;;4.53;3.55;;;;;8.20;102045.00;;;;5032347;28;20230;-77
2022/03/08 07:04:28;;;;;;;4.85;3.72;;;;;8.20;102040.00;;;;5040027;28;20657;-78
2022/03/08 07:06:55;;;;;;;4.28;3.30;;;;;8.30;102040.00;;;;5039200;28;20196;-78
2022/03/08 07:09:23;;;;;;;3.95;3.20;;;;;8.30;102047.00;;;;5067174;28;20203;-77
2022/03/08 07:11:51;;;;;;;6.18;3.97;;;;;8.40;102048.00;;;;5057278;28;20253;-78
2022/03/08 07:14:18;;;;;;;5.95;3.75;;;;;8.40;102036.00;;;;5055398;28;20207;-78
2022/03/08 07:16:48;;;;;;;4.13;3.65;;;;;8.50;102046.00;;;;5047238;28;20203;-77
2022/03/08 07:19:15;;;;;;;4.78;3.97;;;;;8.50;102045.00;;;;5045099;28;20231;-77
2022/03/08 07:21:44;;;;;;;5.25;4.00;;;;;8.60;102040.00;;;;5045504;28;20642;-77
2022/03/08 07:24:12;;;;;;;5.95;4.13;;;;;8.60;102047.00;;;;5044141;28;20286;-78
2022/03/08 07:26:39;;;;;;;5.55;4.40;;;;;8.70;102049.00;;;;5037944;28;20666;-77
2022/03/08 07:29:07;;;;;;;5.68;4.47;;;;;8.70;102042.00;;;;5032133;28;20212;-77
2022/03/08 07:31:34;;;;;;;4.85;3.75;;;;;8.70;102046.00;;;;5045674;28;20245;-78
2022/03/08 07:34:03;;;;;;;6.72;4.00;;;;;8.80;102037.00;;;;5048067;28;20667;-77
2022/03/08 07:36:31;;;;;;;7.30;4.13;;;;;8.90;102041.00;;;;5041771;28;20188;-77
2022/03/08 07:38:58;;;;;;;4.50;3.33;;;;;8.90;102037.00;;;;5051922;28;20199;-78
2022/03/08 07:41:25;;;;;;;5.30;3.90;;;;;9.00;102041.00;;;;5051485;28;20199;-77
2022/03/08 07:43:54;;;;;;;5.47;3.83;;;;;9.00;102047.00;;;;5056702;28;20253;-77
2022/03/08 07:46:22;;;;;;;5.55;3.95;;;;;9.10;102052.00;;;;5048729;28;20195;-76
2022/03/08 07:48:49;;;;;;;4.88;3.83;;;;;9.20;102044.00;;;;5039814;28;20577;-76
2022/03/08 07:51:17;;;;;;;5.05;3.53;;;;;9.20;102040.00;;;;5052391;28;20200;-78
2022/03/08 07:53:45;;;;;;;5.78;4.30;;;;;9.30;102044.00;;;;5049736;28;20204;-78
2022/03/08 07:56:12;;;;;;;5.68;3.97;;;;;9.30;102047.00;;;;5047691;28;20226;-78
2022/03/08 07:58:40;;;;;;;5.35;4.22;;;;;9.40;102044.00;;;;5050134;28;20199;-77
2022/03/08 08:01:08;;;;;;;4.72;3.97;;;;;9.40;102037.00;;;;5049885;28;20233;-77
2022/03/08 08:03:35;;;;;;;5.75;3.35;;;;;9.50;102047.00;;;;5048772;28;20302;-78
2022/03/08 08:06:03;;;;;;;4.75;3.25;;;;;9.60;102045.00;;;;5048146;28;20561;-77
2022/03/08 08:08:32;;;;;;;5.57;3.67;;;;;9.60;102050.00;;;;5047671;28;20203;-77
2022/03/08 08:10:59;;;;;;;6.18;3.53;;;;;9.70;102046.00;;;;5054924;28;20514;-77
2022/03/08 08:13:26;;;;;;;4.00;3.42;;;;;9.70;102057.00;;;;5054465;28;20218;-78
2022/03/08 08:15:53;;;;;;;4.72;4.00;;;;;9.80;102054.00;;;;5049555;28;20253;-78
2022/03/08 08:18:21;;;;;;;6.53;3.85;;;;;9.90;102050.00;;;;5050429;28;20242;-78
2022/03/08 08:20:49;;;;;;;4.82;3.55;;;;;9.90;102044.00;;;;5049310;28;20330;-78
2022/03/08 08:23:16;;;;;;;5.07;3.90;;;;;10.00;102059.00;;;;5049061;28;20218;-78
2022/03/08 08:25:44;;;;;;;4.55;3.33;;;;;10.00;102065.00;;;;5046455;28;20211;-78
2022/03/08 08:28:12;;;;;;;4.53;3.85;;;;;10.10;102062.00;;;;5047276;28;20203;-80
2022/03/08 08:30:39;;;;;;;5.05;4.18;;;;;10.20;102067.00;;;;5046401;28;20203;-78
2022/03/08 08:33:06;;;;;;;8.20;3.80;;;;;10.20;102063.00;;;;5049026;28;20199;-78
2022/03/08 08:35:34;;;;;;;4.47;3.40;;;;;10.30;102067.00;;;;5058304;28;20697;-78
2022/03/08 08:38:01;;;;;;;6.07;3.60;;;;;10.40;102050.00;;;;5049764;28;20203;-79
2022/03/08 08:40:29;;;;;;;5.75;3.53;;;;;10.40;102053.00;;;;5055148;28;20206;-78
2022/03/08 08:42:57;;;;;;;3.88;3.22;;;;;10.50;102054.00;;;;5049547;28;20219;-79
2022/03/08 08:45:24;;;;;;;5.68;3.80;;;;;10.60;102063.00;;;;5052762;28;20843;-80
2022/03/08 08:47:52;;;;;;;4.18;3.30;;;;;10.60;102059.00;;;;5046796;28;20205;-78
2022/03/08 08:50:20;;;;;;;3.63;2.92;;;;;10.70;102055.00;;;;5056162;28;20234;-79
2022/03/08 08:52:47;;;;;;;5.28;4.25;;;;;10.80;102057.00;;;;5049023;28;20207;-80
2022/03/08 08:55:15;;;;;;;4.07;3.33;;;;;10.80;102052.00;;;;5051538;28;20238;-80
2022/03/08 08:57:42;;;;;;;5.93;3.63;;;;;10.90;102035.00;;;;5051869;28;20200;-78
2022/03/08 09:00:12;;;;;;;6.65;4.60;;;;;11.00;102036.00;;;;5047043;28;20199;-79
2022/03/08 09:02:41;;;;;;;6.47;3.70;;;;;11.00;102042.00;;;;5041222;28;21590;-79
2022/03/08 09:05:08;;;;;;;3.97;3.22;;;;;11.10;102040.00;;;;5042960;28;20188;-79
2022/03/08 09:07:36;;;;;;;5.05;4.00;;;;;11.20;102045.00;;;;5040686;28;20208;-79
2022/03/08 09:10:03;;;;;;;4.30;3.45;;;;;11.20;102038.00;;;;5039504;28;20207;-80
2022/03/08 09:12:32;;;;;;;4.72;3.78;;;;;11.30;102035.00;;;;5052363;28;20666;-79
2022/03/08 09:15:01;;;;;;;6.20;3.88;;;;;11.40;102027.00;;;;5045878;28;20207;-80
2022/03/08 09:17:31;;;;;;;5.13;3.75;;;;;11.40;102026.00;;;;5042043;28;20195;-79
2022/03/08 09:19:59;;;;;;;4.82;3.78;;;;;11.50;102015.00;;;;5043585;28;20219;-80
2022/03/08 09:22:26;;;;;;;5.00;3.85;;;;;11.60;102011.00;;;;5046584;28;20292;-80
2022/03/08 09:24:53;;;;;;;5.13;3.53;;;;;11.70;102010.00;;;;5042287;28;20192;-80
2022/03/08 09:27:20;;;;;;;4.68;3.42;;;;;11.70;102007.00;;;;5043310;28;20691;-80
2022/03/08 09:29:48;;;;;;;4.28;3.60;;;;;11.80;102009.00;;;;5041697;28;20196;-79
2022/03/08 09:32:15;;;;;;;4.40;3.67;;;;;11.90;102005.00;;;;5043325;28;20226;-80
2022/03/08 09:34:44;;;;;;;4.05;3.30;;;;;11.90;102014.00;;;;5049018;28;20199;-82
2022/03/08 09:37:11;;;;;;;4.20;3.50;;;;;12.00;102024.00;;;;5048089;28;20199;-81
2022/03/08 09:39:38;;;;;;;4.80;3.58;;;;;12.10;102001.00;;;;5045182;28;20210;-78
2022/03/08 09:42:06;;;;;;;5.53;3.88;;;;;12.20;102005.00;;;;5042286;28;20657;-79
2022/03/08 09:44:34;;;;;;;4.35;3.83;;;;;12.20;102006.00;;;;5043305;28;20223;-82
2022/03/08 09:47:01;;;;;;;4.20;3.80;;;;;12.30;102005.00;;;;5042772;28;20203;-80
2022/03/08 09:49:30;;;;;;;5.95;4.07;;;;;12.40;102009.00;;;;5047795;28;20270;-81
2022/03/08 09:51:59;;;;;;;5.18;4.30;;;;;12.40;102006.00;;;;5046463;28;20199;-81
2022/03/08 09:54:26;;;;;;;4.25;3.50;;;;;12.50;102004.00;;;;5045513;28;20246;-81
2022/03/08 09:56:54;;;;;;;4.80;4.10;;;;;12.60;102004.00;;;;5032974;28;20227;-80
2022/03/08 09:59:22;;;;;;;4.25;3.60;;;;;12.70;102002.00;;;;5042860;28;20215;-78
2022/03/08 10:01:50;;;;;;;4.78;3.92;;;;;12.70;101995.00;;;;5044825;28;20199;-79
2022/03/08 10:04:18;;;;;;;3.90;3.50;;;;;12.80;101995.00;;;;5044999;28;20224;-77
2022/03/08 10:06:47;;;;;;;4.70;3.53;;;;;12.80;101982.00;;;;5047233;28;20207;-78
2022/03/08 10:09:18;;;;;;;4.97;3.80;;;;;12.90;101991.00;;;;5044912;28;20208;-83
2022/03/08 10:11:45;;;;;;;3.95;3.40;;;;;13.00;101981.00;;;;5045012;28;20700;-80
2022/03/08 10:14:27;;;;;;;4.72;3.60;;;;;13.00;101992.00;;;;5045897;28;20204;-78
2022/03/08 10:16:54;;;;;;;4.50;3.65;;;;;13.10;101995.00;;;;5030830;28;20251;-79
2022/03/08 10:19:25;;;;;;;5.75;3.92;;;;;13.20;101981.00;;;;5044330;28;20224;-81
2022/03/08 10:21:54;;;;;;;4.40;3.50;;;;;13.20;101986.00;;;;5045766;28;21011;-81
2022/03/08 10:24:28;;;;;;;3.75;3.33;;;;;13.30;101991.00;;;;5043875;28;20230;-79
2022/03/08 10:26:58;;;;;;;4.40;3.38;;;;;13.40;101989.00;;;;5042939;28;20224;-79
2022/03/08 10:29:31;;;;;;;5.55;2.72;;;;;13.50;101984.00;;;;5042937;28;20223;-78
2022/03/08 10:32:06;;;;;;;3.45;3.15;;;;;13.60;101984.00;;;;5046223;28;20211;-78
2022/03/08 10:34:34;;;;;;;4.68;3.67;;;;;13.70;101977.00;;;;5041816;28;20259;-79
2022/03/08 10:37:03;;;;;;;4.25;3.25;;;;;13.80;101964.00;;;;5037574;28;20210;-80
2022/03/08 10:39:34;;;;;;;3.63;3.10;;;;;13.90;101959.00;;;;5036213;28;20203;-79
2022/03/08 10:42:02;;;;;;;4.38;3.45;;;;;14.00;101957.00;;;;5049846;28;20207;-80
2022/03/08 10:44:38;;;;;;;3.20;2.78;;;;;14.00;101961.00;;;;5039577;28;20557;-80
2022/03/08 10:47:08;;;;;;;6.53;3.30;;;;;14.10;101956.00;;;;5050157;28;20676;-78
2022/03/08 10:49:47;;;;;;;3.67;3.28;;;;;14.20;101961.00;;;;5051255;28;20219;-80
2022/03/08 10:52:15;;;;;;;3.85;3.38;;;;;14.30;101950.00;;;;5043992;28;20591;-80
2022/03/08 10:54:44;;;;;;;4.13;3.25;;;;;14.40;101958.00;;;;5045871;28;20199;-79
2022/03/08 10:57:11;;;;;;;8.27;3.10;;;;;14.50;101953.00;;;;5050209;28;20219;-78
2022/03/08 10:59:53;;;;;;;4.10;3.05;;;;;14.50;101958.00;;;;5047630;28;20208;-80
2022/03/08 11:02:21;;;;;;;3.42;2.72;;;;;14.60;101952.00;;;;5043008;28;20191;-80
2022/03/08 11:04:49;;;;;;;3.08;2.78;;;;;14.70;101940.00;;;;5047661;28;20227;-80
2022/03/08 11:07:17;;;;;;;3.28;2.70;;;;;14.70;101953.00;;;;5047565;28;20206;-79
2022/03/08 11:09:47;;;;;;;3.42;2.85;;;;;14.80;101938.00;;;;5050465;28;20949;-78
2022/03/08 11:12:15;;;;;;;6.13;3.03;;;;;14.90;101947.00;;;;5048890;28;20203;-80
2022/03/08 11:14:42;;;;;;;4.35;3.63;;;;;15.00;101938.00;;;;5047781;28;20295;-79
2022/03/08 11:17:10;;;;;;;3.00;2.70;;;;;15.00;101952.00;;;;5044340;28;20198;-81
2022/03/08 11:19:38;;;;;;;3.72;3.03;;;;;15.10;101941.00;;;;5046719;28;20227;-79
2022/03/08 11:22:09;;;;;;;3.92;3.03;;;;;15.10;101932.00;;;;5045512;28;20196;-79
2022/03/08 11:24:37;;;;;;;3.65;3.15;;;;;15.20;101932.00;;;;5037201;28;20228;-81
2022/03/08 11:27:06;;;;;;;3.47;2.78;;;;;15.30;101934.00;;;;5034254;28;20290;-81
2022/03/08 11:29:35;;;;;;;3.38;3.08;;;;;15.30;101922.00;;;;5050043;28;20207;-79
2022/03/08 11:32:05;;;;;;;3.95;3.20;;;;;15.40;101927.00;;;;5049645;28;20207;-78
2022/03/08 11:34:39;;;;;;;3.42;3.05;;;;;15.40;101914.00;;;;5048250;28;20274;-78
2022/03/08 11:37:14;;;;;;;3.53;2.72;;;;;15.50;101917.00;;;;5043812;28;20206;-78
2022/03/08 11:39:43;;;;;;;3.67;3.30;;;;;15.50;101912.00;;;;5033586;28;20206;-79
2022/03/08 11:42:31;;;;;;;3.63;2.78;;;;;15.50;101924.00;;;;5047301;28;20195;-78
2022/03/08 11:45:01;;;;;;;2.97;2.67;;;;;15.60;101914.00;;;;5053400;28;20223;-79
2022/03/08 11:47:49;;;;;;;3.03;2.67;;;;;15.60;101907.00;;;;5040013;28;20666;-81
2022/03/08 11:50:23;;;;;;;3.03;2.40;;;;;15.70;101917.00;;;;5042196;28;20207;-80
2022/03/08 11:53:09;;;;;;;2.50;1.90;;;;;15.70;101912.00;;;;5046620;28;20238;-79
2022/03/08 11:55:38;;;;;;;2.92;2.42;;;;;15.90;101901.00;;;;5047977;28;20220;-80
2022/03/08 11:58:08;;;;;;;3.60;2.47;;;;;15.90;101899.00;;;;5034103;28;20204;-79
2022/03/08 12:00:40;;;;;;;2.97;2.63;;;;;15.90;101878.00;;;;5038789;28;20211;-80
2022/03/08 12:03:10;;;;;;;3.00;2.70;;;;;16.00;101889.00;;;;5044273;28;20613;-81
2022/03/08 12:05:46;;;;;;;3.33;3.00;;;;;15.90;101890.00;;;;5040580;28;20234;-79
2022/03/08 12:08:42;;;;;;;2.92;2.67;;;;;15.90;101885.00;;;;5045614;28;20238;-80
2022/03/08 12:11:27;;;;;;;4.15;2.78;;;;;16.00;101881.00;;;;5047703;28;20200;-80
2022/03/08 12:14:03;;;;;;;2.60;2.35;;;;;16.00;101885.00;;;;5045954;28;20195;-80
2022/03/08 12:16:31;;;;;;;3.80;2.65;;;;;16.20;101876.00;;;;5033888;28;20198;-81
2022/03/08 12:19:00;;;;;;;3.17;2.67;;;;;16.20;101886.00;;;;5045944;28;20200;-80